»·PEaware :: N1410F KBFL-KSAC

N1410F :: KBFL-KSAC

FLIGHT INFORMATION

Flight Status: Arrived
Operator: Privately registered:
United States
More flights under this callsign
Pilot: Ryan C. (15122)
Aircraft: CESSNA 172 SKYHAWK
(C172)
More flights by this aircraft type
Origin: KBFL Meadows
United States
Destination: KSAC Sacramento Executive
United States
More flights between these airports :: More routes between these airports
Route: EHF CZQ LIN SAC
File this flight plan on PilotEdge
Remarks:
Altitude:
(Current/Filed)
8,000ft
Speed:
(Current/Filed)
125kts
Departed: 27-Dec-17 01:52 PM
Arrived: 27-Dec-17 04:07 PM
Distance/Time
Traveled:
219nm/2:15
Distance/Time
To Go:
Arrived

Flight Plot

Page will automatically refresh every two minutes.

Flight plan parsing failed; only flown route is shown


Map Options




Map Legend


Flown Route
Filed Route
Departure Airport
Arrival Airport
Navaid (VOR, NDB)
Fix

Horizontal Profiles

Position Reports

Time Latitude Longitude Heading Altitude Ground
Speed
27-Dec-17 13:41 35.426189 -119.042682 179 510ft 0kts
27-Dec-17 13:42 35.426189 -119.042682 179 510ft 0kts
27-Dec-17 13:43 35.426189 -119.042682 179 510ft 0kts
27-Dec-17 13:44 35.426189 -119.042682 179 510ft 0kts
27-Dec-17 13:45 35.426189 -119.042682 179 510ft 0kts
27-Dec-17 13:46 35.426189 -119.042682 179 510ft 0kts
27-Dec-17 13:47 35.426189 -119.042682 179 510ft 0kts
27-Dec-17 13:48 35.426189 -119.042682 179 510ft 0kts
27-Dec-17 13:49 35.426189 -119.042682 179 510ft 0kts
27-Dec-17 13:50 35.426189 -119.042682 179 510ft 0kts
27-Dec-17 13:51 35.426189 -119.042682 179 510ft 0kts
27-Dec-17 13:52 35.425515 -119.043136 185 510ft 11kts
27-Dec-17 13:53 35.425499 -119.043378 347 510ft 0kts
27-Dec-17 13:54 35.425500 -119.043378 346 510ft 0kts
27-Dec-17 13:55 35.425788 -119.044175 312 510ft 10kts
27-Dec-17 13:56 35.425732 -119.044754 227 510ft 0kts
27-Dec-17 13:57 35.426288 -119.047040 315 510ft 15kts
27-Dec-17 13:58 35.438360 -119.063114 308 1026ft 92kts
27-Dec-17 13:59 35.455892 -119.084745 312 1977ft 94kts
27-Dec-17 14:00 35.478684 -119.097754 353 2782ft 102kts
27-Dec-17 14:01 35.504658 -119.108246 336 3626ft 98kts
27-Dec-17 14:02 35.529850 -119.120487 334 4421ft 97kts
27-Dec-17 14:03 35.554176 -119.132620 333 5214ft 92kts
27-Dec-17 14:04 35.577259 -119.144247 333 5955ft 90kts
27-Dec-17 14:05 35.600531 -119.155993 334 6656ft 89kts
27-Dec-17 14:06 35.622966 -119.167315 334 7346ft 85kts
27-Dec-17 14:07 35.644650 -119.178271 334 7982ft 86kts
27-Dec-17 14:08 35.670288 -119.191215 336 7997ft 104kts
27-Dec-17 14:09 35.697419 -119.204880 336 7995ft 105kts
27-Dec-17 14:10 35.724511 -119.218560 335 7995ft 105kts
27-Dec-17 14:11 35.751686 -119.232311 335 7995ft 105kts
27-Dec-17 14:12 35.778825 -119.246052 335 7995ft 105kts
27-Dec-17 14:13 35.804442 -119.259037 335 7995ft 105kts
27-Dec-17 14:14 35.833209 -119.273639 336 7994ft 105kts
27-Dec-17 14:15 35.860296 -119.287379 335 7995ft 105kts
27-Dec-17 14:16 35.887509 -119.301206 335 7998ft 105kts
27-Dec-17 14:17 35.914713 -119.315049 335 8002ft 106kts
27-Dec-17 14:18 35.941938 -119.328918 335 8005ft 106kts
27-Dec-17 14:19 35.969169 -119.342811 335 8008ft 106kts
27-Dec-17 14:20 35.996448 -119.356724 335 8011ft 106kts
27-Dec-17 14:21 36.023845 -119.370684 334 8012ft 107kts
27-Dec-17 14:22 36.051117 -119.384717 337 8011ft 105kts
27-Dec-17 14:23 36.078039 -119.398461 337 8011ft 105kts
27-Dec-17 14:24 36.104633 -119.412047 338 8013ft 105kts
27-Dec-17 14:25 36.131702 -119.425879 338 8014ft 106kts
27-Dec-17 14:26 36.158994 -119.439844 339 8013ft 106kts
27-Dec-17 14:27 36.186312 -119.453827 338 8013ft 106kts
27-Dec-17 14:28 36.213658 -119.467862 338 8013ft 106kts
27-Dec-17 14:29 36.236363 -119.479520 338 8013ft 106kts
27-Dec-17 14:30 36.263634 -119.493539 338 8013ft 106kts
27-Dec-17 14:31 36.295439 -119.509899 337 8013ft 106kts
27-Dec-17 14:32 36.322709 -119.523926 337 8013ft 106kts
27-Dec-17 14:33 36.349996 -119.537992 337 8013ft 106kts
27-Dec-17 14:34 36.372748 -119.549732 337 8013ft 106kts
27-Dec-17 14:35 36.400036 -119.563818 337 8013ft 106kts
27-Dec-17 14:36 36.431809 -119.580218 337 8013ft 106kts
27-Dec-17 14:37 36.454632 -119.591998 337 8012ft 106kts
27-Dec-17 14:38 36.481734 -119.606001 337 8012ft 106kts
27-Dec-17 14:39 36.508909 -119.620071 337 8009ft 106kts
27-Dec-17 14:40 36.536234 -119.634209 338 8005ft 106kts
27-Dec-17 14:41 36.563392 -119.648272 338 8001ft 106kts
27-Dec-17 14:42 36.589727 -119.661938 337 7997ft 106kts
27-Dec-17 14:43 36.615908 -119.675523 337 7993ft 106kts
27-Dec-17 14:44 36.641179 -119.688631 337 7988ft 106kts
27-Dec-17 14:45 36.665628 -119.701339 338 7988ft 106kts
27-Dec-17 14:46 36.689141 -119.713559 338 7989ft 106kts
27-Dec-17 14:47 36.711692 -119.725286 338 7990ft 106kts
27-Dec-17 14:48 36.735342 -119.737589 338 7990ft 106kts
27-Dec-17 14:49 36.759515 -119.750167 339 7991ft 106kts
27-Dec-17 14:50 36.783542 -119.762682 339 7993ft 106kts
27-Dec-17 14:51 36.807630 -119.775219 339 7993ft 106kts
27-Dec-17 14:52 36.832394 -119.788119 339 7993ft 107kts
27-Dec-17 14:53 36.857806 -119.801379 339 7993ft 107kts
27-Dec-17 14:54 36.884103 -119.815758 324 7991ft 109kts
27-Dec-17 14:55 36.908057 -119.838707 326 7994ft 109kts
27-Dec-17 14:56 36.932362 -119.861899 317 7998ft 110kts
27-Dec-17 14:57 36.956004 -119.885399 317 7999ft 109kts
27-Dec-17 14:58 36.979090 -119.908123 318 8000ft 108kts
27-Dec-17 14:59 37.002360 -119.930991 318 8001ft 107kts
27-Dec-17 15:00 37.025730 -119.953960 318 8002ft 107kts
27-Dec-17 15:01 37.049155 -119.976981 318 8003ft 107kts
27-Dec-17 15:02 37.072390 -119.999843 318 8003ft 106kts
27-Dec-17 15:03 37.095693 -120.022775 317 8003ft 106kts
27-Dec-17 15:04 37.118505 -120.045238 317 8037ft 105kts
27-Dec-17 15:05 37.141712 -120.068149 317 8040ft 106kts
27-Dec-17 15:06 37.164796 -120.090947 317 8039ft 106kts
27-Dec-17 15:07 37.188260 -120.114136 317 8038ft 106kts
27-Dec-17 15:08 37.211523 -120.137161 317 8037ft 106kts
27-Dec-17 15:09 37.234708 -120.160114 317 8036ft 105kts
27-Dec-17 15:10 37.257739 -120.182926 318 8034ft 105kts
27-Dec-17 15:11 37.280577 -120.205566 318 8032ft 104kts
27-Dec-17 15:12 37.303411 -120.228214 318 8031ft 104kts
27-Dec-17 15:13 37.326116 -120.250725 318 8031ft 104kts
27-Dec-17 15:14 37.348839 -120.273288 318 8031ft 104kts
27-Dec-17 15:15 37.371487 -120.295814 318 8031ft 104kts
27-Dec-17 15:16 37.394124 -120.318366 318 8030ft 104kts
27-Dec-17 15:17 37.416796 -120.340960 318 8030ft 104kts
27-Dec-17 15:18 37.439419 -120.363511 318 8030ft 104kts
27-Dec-17 15:19 37.462070 -120.386105 318 8030ft 104kts
27-Dec-17 15:20 37.484705 -120.408701 318 8030ft 104kts
27-Dec-17 15:21 37.507284 -120.431245 319 8030ft 104kts
27-Dec-17 15:22 37.530046 -120.453995 319 8030ft 104kts
27-Dec-17 15:23 37.552616 -120.476585 319 8030ft 104kts
27-Dec-17 15:24 37.575294 -120.499295 318 8030ft 104kts
27-Dec-17 15:25 37.597831 -120.521880 318 8037ft 103kts
27-Dec-17 15:26 37.620322 -120.544442 318 8041ft 103kts
27-Dec-17 15:27 37.642930 -120.567135 318 8042ft 104kts
27-Dec-17 15:28 37.665473 -120.589784 318 8043ft 104kts
27-Dec-17 15:29 37.687967 -120.612408 318 8044ft 104kts
27-Dec-17 15:30 37.710570 -120.635162 318 8044ft 104kts
27-Dec-17 15:31 37.732812 -120.657562 317 8048ft 104kts
27-Dec-17 15:32 37.755423 -120.680347 317 8048ft 104kts
27-Dec-17 15:33 37.778089 -120.703216 317 8048ft 104kts
27-Dec-17 15:34 37.800731 -120.726073 317 8046ft 104kts
27-Dec-17 15:35 37.823276 -120.748843 317 8044ft 104kts
27-Dec-17 15:36 37.845688 -120.771504 318 8042ft 103kts
27-Dec-17 15:37 37.868062 -120.794166 318 8041ft 103kts
27-Dec-17 15:38 37.890492 -120.816883 318 8040ft 103kts
27-Dec-17 15:39 37.912957 -120.839653 318 8040ft 103kts
27-Dec-17 15:40 37.935299 -120.862309 318 8041ft 103kts
27-Dec-17 15:41 37.957666 -120.885009 318 8040ft 103kts
27-Dec-17 15:42 37.980014 -120.907719 318 8040ft 103kts
27-Dec-17 15:43 38.001294 -120.929353 318 8038ft 102kts
27-Dec-17 15:44 38.024389 -120.952854 319 8037ft 102kts
27-Dec-17 15:45 38.046738 -120.975604 319 8035ft 102kts
27-Dec-17 15:46 38.068868 -120.998175 319 8034ft 102kts
27-Dec-17 15:47 38.088052 -121.024225 310 8034ft 101kts
27-Dec-17 15:48 38.106140 -121.050659 309 8038ft 101kts
27-Dec-17 15:49 38.124322 -121.077394 309 8040ft 101kts
27-Dec-17 15:50 38.142355 -121.103934 309 8043ft 101kts
27-Dec-17 15:51 38.160269 -121.130313 309 8046ft 101kts
27-Dec-17 15:52 38.178378 -121.157060 309 8016ft 103kts
27-Dec-17 15:53 38.198690 -121.187091 310 7328ft 114kts
27-Dec-17 15:54 38.219380 -121.217720 310 6633ft 115kts
27-Dec-17 15:55 38.240233 -121.248622 310 5935ft 115kts
27-Dec-17 15:56 38.259648 -121.277444 310 6069ft 102kts
27-Dec-17 15:57 38.278340 -121.305185 310 6060ft 104kts
27-Dec-17 15:58 38.296384 -121.331989 310 6061ft 101kts
27-Dec-17 15:59 38.313877 -121.357996 311 6062ft 101kts
27-Dec-17 16:00 38.331738 -121.384569 311 5819ft 110kts
27-Dec-17 16:01 38.340521 -121.419430 283 5170ft 114kts
27-Dec-17 16:02 38.345283 -121.455363 283 4534ft 114kts
27-Dec-17 16:03 38.359251 -121.487168 303 3890ft 113kts
27-Dec-17 16:04 38.373753 -121.518494 303 3237ft 109kts
27-Dec-17 16:05 38.387218 -121.547695 304 2895ft 95kts
27-Dec-17 16:06 38.403739 -121.570009 334 2562ft 96kts
27-Dec-17 16:07 38.426374 -121.565734 34 2044ft 100kts
27-Dec-17 16:08 38.446025 -121.549194 29 1583ft 94kts
27-Dec-17 16:09 38.464337 -121.534424 30 1138ft 93kts
27-Dec-17 16:10 38.479275 -121.522038 29 819ft 70kts
27-Dec-17 16:11 38.490063 -121.513140 29 559ft 63kts
27-Dec-17 16:12 38.499942 -121.505021 29 250ft 62kts
27-Dec-17 16:13 38.508882 -121.497619 29 27ft 36kts
27-Dec-17 16:14 38.511610 -121.497061 10 27ft 9kts
27-Dec-17 16:15 38.513406 -121.496309 286 27ft 13kts
27-Dec-17 16:16 38.515209 -121.495994 45 27ft 1kts

Navigation Log

Ident Type
Flight plan parsing failed, navigation log unavailable